Airfield :







YOU CAN JOIN US ON...

 
LOGIN :

Register | Disclaimer

   EN    FR    IT 

 









Legend :    VFR   Marginal VFR   IFR   Intensive IFR   Very Intensive IFR
Visi :
Ceiling :
>= 8 km
>= 3000ft
5 to 8 km
1000 to 3000 ft
1500m to 5 km
500 to 1000 ft
800 to 1500m
200 to 500 ft
< 800m
< 200 ft
Symbols :   Thunderstorms  Fog  Heavy snow  Heavy precipitations  Wind > 20 kt






- Airport Elevation : 98 ft
- IATA code : JBQ


MDJB - El Higuero

CURRENT METAR :
  • 102300Z 00000KT 9999 SCT016 22/21 Q1016

EXPIRED METARs :
  • 102200Z 03006KT 8000 -RA FEW010CB BKN012 SCT070 22/22 Q1015 CB/W

TAF TAF MDJB
Valid from the 11 at 00:00 until the 12 at 00:00 UTC


102200Z 1100/1200 36010KT 9999 FEW014CB BKN016
PROB30 1100/1106 7000 RA BKN016 SCT070



MET'MAP, your aeronautical weather chart ! - Copyright ORBIFLY December 2007 - Disclaimer

ORBIFLY MET'MAP TEAM :

Programming & Development : Alexandra Zaïnal
Concept & original design : Baudouin d'Aumeries
Assistance for programming : Marc-Olivier Méhu
Technical & hardware support : Manuel Goepfert

Contact : metmap@orbifly.com




SOURCES & CREDITS :

   NOAA